ADDS METAR Data INFO
IDs: Format: Raw Decoded Include TAF

Data at: 0901 UTC 20 Oct 2017

KPSP 200853Z 00000KT 10SM CLR 21/11 A2976 RMK AO2 SLP073 T02060111 53002
KPSP 200753Z 33004KT 10SM CLR 22/11 A2974 RMK AO2 SLP067 T02170106 403500200
KPSP 200653Z 16006KT 10SM CLR 22/10 A2975 RMK AO2 SLP069 T02170100
KPSP 200553Z 17006KT 10SM CLR 24/08 A2975 RMK AO2 SLP071 T02390083 10317 20239 51008
KPSP 200453Z 30010G26KT 10SM CLR 26/08 A2975 RMK AO2 SLP071 T02610078
KPSP 200353Z 31011KT 10SM CLR 27/06 A2974 RMK AO2 SLP069 T02720061
KPSP 200253Z 32016G22KT 10SM CLR 28/08 A2973 RMK AO2 SLP064 T02780078 53008
KPSP 200153Z 29014G26KT 10SM CLR 29/07 A2972 RMK AO2 SLP060 T02890067
KPSP 200053Z 28013G26KT 10SM CLR 31/03 A2972 RMK AO2 SLP060 T03060028
KPSP 192353Z 32013G20KT 10SM CLR 32/04 A2971 RMK AO2 SLP055 T03170044 10350 20317 58011
KPSP 192253Z 30013G22KT 10SM CLR 33/03 A2972 RMK AO2 SLP060 T03280028
KPSP 192153Z 32012KT 10SM CLR 33/05 A2973 RMK AO2 SLP063 T03330050
KPSP 192053Z 33011G18KT 310V010 10SM CLR 34/03 A2974 RMK AO2 SLP067 T03440033 58023
KPSP 191953Z 33010G15KT 10SM CLR 34/04 A2977 RMK AO2 SLP077 T03440044
KPSP 191853Z 32006KT 10SM CLR 34/07 A2979 RMK AO2 SLP084 T03390067
KPSP 191753Z 00000KT 10SM CLR 32/08 A2981 RMK AO2 SLP090 T03170078 10317 20200 58001
KPSP 191653Z 00000KT 10SM CLR 29/08 A2983 RMK AO2 SLP096 T02890083
KPSP 191553Z 00000KT 10SM CLR 26/09 A2982 RMK AO2 SLP094 T02610094
KPSP 191453Z 00000KT 10SM CLR 22/11 A2981 RMK AO2 SLP091 T02220106 53008
KPSP 191353Z 00000KT 10SM CLR 20/11 A2980 RMK AO2 SLP087 T02000106
KPSP 191253Z 00000KT 10SM CLR 21/11 A2979 RMK AO2 SLP086 T02060106
KPSP 191153Z 00000KT 10SM CLR 23/09 A2979 RMK AO2 SLP082 T02330094 10300 20217 55005
KPSP 191053Z 25003KT 10SM CLR 23/09 A2978 RMK AO2 SLP080 T02280094
KPSP 190953Z 00000KT 10SM CLR 23/11 A2979 RMK AO2 SLP083 T02280106
KPSP 190853Z 00000KT 10SM CLR 24/10 A2980 RMK AO2 SLP088 T02390100 56006
KPSP 190753Z 15004KT 10SM CLR 25/09 A2980 RMK AO2 SLP088 T02500094 403720222
KPSP 190653Z 00000KT 10SM CLR 26/09 A2981 RMK AO2 SLP090 T02610089
KPSP 190553Z 32009KT 10SM CLR 30/08 A2982 RMK AO2 SLP093 T03000078 10356 20300 58001
KPSP 190453Z 29009KT 10SM CLR 30/08 A2982 RMK AO2 SLP094 T03000078
KPSP 190353Z 30004KT 10SM CLR 31/08 A2983 RMK AO2 SLP096 T03110078
KPSP 190253Z 30006KT 10SM CLR 32/08 A2982 RMK AO2 SLP094 T03220078 53004
KPSP 190153Z 28005KT 10SM CLR 33/05 A2981 RMK AO2 SLP092 T03280050
KPSP 190053Z 28005KT 10SM CLR 33/04 A2981 RMK AO2 SLP089 T03330039
KPSP 182353Z 15005KT 10SM CLR 35/03 A2981 RMK AO2 SLP091 T03500033 10372 20333 56010
KPSP 182253Z 10010KT 10SM CLR 36/03 A2982 RMK AO2 SLP092 T03610033
KPSP 182207Z 11009KT 10SM CLR 37/02 A2982 RMK AO2 T03720022
KPSP 182153Z 11008KT 10SM CLR 37/02 A2983 RMK AO2 SLP096 T03670022